Archival Weather

Abadan

Abadan, Iran (OIAA)

Report from: Wednesday, December 6, 2023 3:00 PM UTC
Current time: Sunday, February 25, 2024 10:34 PM UTC

Current weather – Weather history – Daily summaries
Weather forecast

Temperature20.0°C (68.0°F)
Dew point7.0°C (44.6°F)
Winds 4 kts (2.1 m/s, 4.6 mph) East (80°)
Visibility5 mi. (8 km)
Altimeter30.03 in.Hg (1017 mB)
Relative humidity43 %
Density altitude605 ft. (184 m)
Flight conditions Marginal Visual Meteorological Conditions
Raw dataOIAA 061500Z 08004KT 8000 NSC 20/07 Q1017
An error has occurred. This application may no longer respond until reloaded. Reload 🗙